Chagrin Falls, OH (44022)

6:10 AM EDT on July 24, 2017 (GMT -0400)
Moreland Hills | | Change Station
Active Advisory: Beach Hazard Statement

Elev 958 ft 41.45 °N, 81.43 °W | Updated 12 seconds ago

Mostly Cloudy
Mostly Cloudy
65.8 °F
Feels Like 65.8 °F
N
0.0
Wind Variable Wind from ESE

Today
High -- | Low -- °F
--% Chance of Precip.
Yesterday
High -- | Low -- °F
Precip. -- in
Pressure 29.80 in
Visibility 10.0 miles
Clouds Few 1200 ft
Overcast 1700 ft
Dew Point 65 °F
Humidity 98%
Rainfall 0.00 in
Snow Depth Not available.
6:13 AM 8:50 PM
New Moon, 1% visible
SPECI KBKL 241005Z AUTO 35007KT 10SM FEW012 OVC017 23/19 A2980 RMK AO2 T02280189
Pressure 29.80 in
Visibility 10.0 miles
Clouds Few 1200 ft
Overcast 1700 ft
Dew Point 65 °F
Humidity 98%
Rainfall 0.00 in
Snow Depth Not available.
6:13 AM 8:50 PM
New Moon, 1% visible
SPECI KBKL 241005Z AUTO 35007KT 10SM FEW012 OVC017 23/19 A2980 RMK AO2 T02280189

Get Your Daily Forecast Email!

Thanks for signing up!

Be on the lookout for a verification email in your inbox.

You'll start receiving severe weather alerts in your inbox..

×

10-Day Weather Forecast

Almanac

Astronomy

Jul. 24, 2017 Rise Set
Actual Time
Civil Twilight
Nautical Twilight
Astronomical Twilight
Moon
Length of Visible Light
Length of Day
Tomorrow will be .
, % of the Moon is Illuminated

Today's Extremes

State Highs State Lows

Community

WunderPhotos

Category 6

Welcome to Category 6. This is the collective home for Weather Underground's featured writeups by Dr. Jeff Masters (right), Bob Henson (left), Chris Burt, and other regular contributors.

Nearby

Air Quality

  Air Quality AQ Index Pollutant
Not available.

Snow Depth

Station Depth Elevation

Earthquake Activity

City Distance Mag. Time & Date
Minimum magnitude displayed is 2.5.

Coastal Water Temperatures

Place Temperature

Stations

Nearby Weather Stations

Station Location Temp. Windchill Dew Point Humidity Wind Precip. Elev Updated Type
                   

Watches & Warnings

Beach Hazard Statement
Issued: 4:01 AM EDT Jul. 24, 2017 – National Weather Service

... Beach hazards statement in effect from this afternoon through
late tonight...

The National Weather Service in Cleveland has issued a beach
hazards statement... which is in effect from 4 PM this afternoon
through late tonight.

* Locations... Lake Erie beaches of Erie... Lorain and Cuyahoga
counties in Northern Ohio.

* Timing... from 4 PM this afternoon to 4 am Tuesday.

* Impacts... high swimming risk from waves and dangerous currents.

Precautionary/preparedness actions...

A beach hazards statement is issued when swimming risks exist
from a combination of wind and large waves including rip currents
and longshore currents. These swimming risks can create life-
threatening conditions even for good swimmers. Follow the
instruction of local authorities or stay out of the water.